Norfolk, Virginia
Traffic Map
Current Weather Conditions
Norfolk, Virginia
Clear
Clear
83°
Feels Like: 89°
Wind Chill: 83° Ceiling: Unl
Heat Index: 89° Visibility: 10mi
Dew Point: 74° Wind: 14mph
Humidity: 74% Direction: 40° (NE)
Pressure: 30.2in Gusts: 0mph
Raw Report DataKORF 281551Z 04012KT 10SM CLR 28/23 A3020 RMK AO2 SLP225 T02830233
Traffic Incident Summary
Active as of:
Severity:
Category:
InformationThere was an issue retrieving the traffic information for this location. Please try a different location or try again shortly.
Advertisements
Track Severe Weather on mobile